createdAt,value
2019-03-24T00:01:41.117Z,102517.19
2019-03-24T00:03:57.370Z,102519.29
2019-03-24T00:06:17.140Z,102520.92
2019-03-24T00:08:36.951Z,102520.35
2019-03-24T00:10:56.764Z,102516.75
2019-03-24T00:13:16.770Z,102520.43
2019-03-24T00:15:36.560Z,102515.02
2019-03-24T00:17:56.566Z,102515.47
2019-03-24T00:20:16.547Z,102512.30
2019-03-24T00:22:36.511Z,102513.33
2019-03-24T00:24:56.965Z,102510.88
2019-03-24T00:27:16.673Z,102511.86
2019-03-24T00:29:36.508Z,102513.17
2019-03-24T00:31:56.961Z,102518.41
2019-03-24T00:34:17.143Z,102511.87
2019-03-24T00:36:37.256Z,102513.53
2019-03-24T00:38:57.119Z,102515.63
2019-03-24T00:41:16.858Z,102520.38
2019-03-24T00:43:36.678Z,102523.77
2019-03-24T00:45:56.493Z,102523.25
2019-03-24T00:48:16.231Z,102520.42
2019-03-24T00:50:36.069Z,102517.72
2019-03-24T00:52:55.885Z,102510.45
2019-03-24T00:55:16.095Z,102523.91
2019-03-24T00:57:37.636Z,102521.61
2019-03-24T00:59:57.730Z,102518.63
2019-03-24T01:02:17.701Z,102522.95
2019-03-24T01:04:37.948Z,102517.09
2019-03-24T01:06:57.967Z,102521.80
2019-03-24T01:09:17.832Z,102524.55
2019-03-24T01:11:38.000Z,102523.40
2019-03-24T01:13:57.876Z,102518.67
2019-03-24T01:16:17.803Z,102522.78
2019-03-24T01:18:37.729Z,102519.47
2019-03-24T01:20:57.879Z,102522.00
2019-03-24T01:23:17.876Z,102524.03
2019-03-24T01:25:37.697Z,102515.48
2019-03-24T01:27:57.614Z,102515.34
2019-03-24T01:30:17.788Z,102510.81
2019-03-24T01:32:37.692Z,102513.08
2019-03-24T01:34:57.526Z,102514.88
2019-03-24T01:37:17.322Z,102510.22
2019-03-24T01:39:37.096Z,102508.45
2019-03-24T01:41:56.884Z,102510.25
2019-03-24T01:44:16.654Z,102507.14
2019-03-24T01:46:36.418Z,102502.54
2019-03-24T01:48:56.176Z,102504.56
2019-03-24T01:51:16.121Z,102498.45
2019-03-24T01:53:36.198Z,102496.52
2019-03-24T01:55:55.923Z,102498.91
2019-03-24T01:58:15.785Z,102493.31
2019-03-24T02:00:35.712Z,102489.63
2019-03-24T02:02:55.957Z,102489.64
2019-03-24T02:05:15.909Z,102485.89
2019-03-24T02:07:35.819Z,102483.48
2019-03-24T02:09:55.716Z,102491.21
2019-03-24T02:12:15.818Z,102490.12
2019-03-24T02:14:35.736Z,102482.88
2019-03-24T02:16:55.609Z,102482.81
2019-03-24T02:19:15.482Z,102476.72
2019-03-24T02:21:35.291Z,102478.55
2019-03-24T02:23:55.079Z,102476.28
2019-03-24T02:26:14.950Z,102478.61
2019-03-24T02:28:34.494Z,102484.13
2019-03-24T02:30:54.301Z,102481.71
2019-03-24T02:33:14.075Z,102483.39
2019-03-24T02:35:33.741Z,102484.69
2019-03-24T02:37:53.651Z,102486.44
2019-03-24T02:40:13.544Z,102483.78
2019-03-24T02:42:33.664Z,102486.28
2019-03-24T02:44:53.440Z,102486.19
2019-03-24T02:47:13.152Z,102485.41
2019-03-24T02:49:32.878Z,102484.97
2019-03-24T02:51:52.646Z,102490.89
2019-03-24T02:54:12.592Z,102486.00
2019-03-24T02:56:32.514Z,102484.20
2019-03-24T02:58:52.456Z,102485.36
2019-03-24T03:01:12.926Z,102488.14
2019-03-24T03:03:33.111Z,102485.20
2019-03-24T03:05:52.875Z,102486.44
2019-03-24T03:08:12.623Z,102483.50
2019-03-24T03:10:32.324Z,102477.72
2019-03-24T03:12:52.090Z,102474.28
2019-03-24T03:15:12.440Z,102472.56
2019-03-24T03:17:32.278Z,102474.05
2019-03-24T03:19:53.932Z,102473.75
2019-03-24T03:22:13.862Z,102473.91
2019-03-24T03:24:33.554Z,102470.15
2019-03-24T03:26:53.361Z,102468.72
2019-03-24T03:29:13.103Z,102465.09
2019-03-24T03:31:32.846Z,102464.63
2019-03-24T03:33:52.697Z,102458.43
2019-03-24T03:36:12.933Z,102462.18
2019-03-24T03:38:32.587Z,102452.08
2019-03-24T03:40:52.471Z,102462.86
2019-03-24T03:43:12.888Z,102456.34
2019-03-24T03:45:32.963Z,102464.98
2019-03-24T03:47:53.547Z,102460.39
2019-03-24T03:50:13.558Z,102462.34
2019-03-24T03:52:33.486Z,102465.47
2019-03-24T03:54:53.273Z,102464.34
2019-03-24T03:57:13.218Z,102464.67
2019-03-24T03:59:33.198Z,102471.34
2019-03-24T04:01:53.011Z,102466.28
2019-03-24T04:04:12.988Z,102471.48
2019-03-24T04:06:32.882Z,102467.56
2019-03-24T04:08:52.758Z,102461.70
2019-03-24T04:11:12.553Z,102462.21
2019-03-24T04:13:32.249Z,102463.65
2019-03-24T04:15:51.924Z,102466.42
2019-03-24T04:18:11.659Z,102463.96
2019-03-24T04:20:31.465Z,102461.22
2019-03-24T04:22:51.246Z,102454.22
2019-03-24T04:25:11.057Z,102447.16
2019-03-24T04:27:30.887Z,102450.61
2019-03-24T04:29:51.467Z,102448.81
2019-03-24T04:32:11.326Z,102445.70
2019-03-24T04:34:31.021Z,102445.41
2019-03-24T04:36:50.795Z,102445.41
2019-03-24T04:39:10.500Z,102439.38
2019-03-24T04:41:30.324Z,102442.14
2019-03-24T04:43:50.229Z,102443.91
2019-03-24T04:46:10.193Z,102439.48
2019-03-24T04:48:30.232Z,102436.86
2019-03-24T04:50:50.256Z,102436.67
2019-03-24T04:53:10.050Z,102442.41
2019-03-24T04:55:29.816Z,102442.41
2019-03-24T04:57:49.717Z,102443.09
2019-03-24T05:00:10.554Z,102449.58
2019-03-24T05:02:30.308Z,102445.04
2019-03-24T05:04:50.362Z,102444.71
2019-03-24T05:07:10.098Z,102451.70
2019-03-24T05:09:29.986Z,102442.11
2019-03-24T05:11:50.068Z,102443.73
2019-03-24T05:14:09.828Z,102444.70
2019-03-24T05:16:29.832Z,102439.98
2019-03-24T05:18:50.050Z,102438.03
2019-03-24T05:21:09.792Z,102436.75
2019-03-24T05:23:29.653Z,102432.18
2019-03-24T05:25:49.339Z,102432.82
2019-03-24T05:28:09.200Z,102425.98
2019-03-24T05:30:29.013Z,102423.02
2019-03-24T05:32:48.736Z,102424.16
2019-03-24T05:35:08.764Z,102425.78
2019-03-24T05:37:28.608Z,102426.29
2019-03-24T05:39:48.557Z,102429.06
2019-03-24T05:42:08.516Z,102431.98
2019-03-24T05:44:28.506Z,102433.63
2019-03-24T05:46:48.536Z,102428.25
2019-03-24T05:49:08.711Z,102425.80
2019-03-24T05:51:28.510Z,102434.45
2019-03-24T05:53:48.776Z,102429.24
2019-03-24T05:56:08.434Z,102431.87
2019-03-24T05:58:28.118Z,102435.92
2019-03-24T06:00:47.934Z,102428.08
2019-03-24T06:03:07.702Z,102434.45
2019-03-24T06:05:27.705Z,102434.94
2019-03-24T06:07:47.442Z,102436.41
2019-03-24T06:10:07.401Z,102436.25
2019-03-24T06:12:27.512Z,102436.58
2019-03-24T06:14:47.293Z,102430.50
2019-03-24T06:17:07.374Z,102434.27
2019-03-24T06:19:27.412Z,102438.81
2019-03-24T06:21:47.096Z,102434.59
2019-03-24T06:24:06.844Z,102433.08
2019-03-24T06:26:26.665Z,102436.36
2019-03-24T06:28:46.527Z,102431.48
2019-03-24T06:31:06.472Z,102435.34
2019-03-24T06:33:26.382Z,102421.53
2019-03-24T06:35:46.480Z,102421.03
2019-03-24T06:38:06.308Z,102426.63
2019-03-24T06:40:25.930Z,102420.20
2019-03-24T06:42:45.710Z,102416.73
2019-03-24T06:45:06.266Z,102419.53
2019-03-24T06:47:26.263Z,102416.07
2019-03-24T06:49:45.877Z,102415.38
2019-03-24T06:52:05.559Z,102415.69
2019-03-24T06:54:25.528Z,102418.44
2019-03-24T06:56:45.274Z,102413.52
2019-03-24T06:59:05.148Z,102414.11
2019-03-24T07:01:25.065Z,102416.14
2019-03-24T07:03:44.740Z,102413.64
2019-03-24T07:06:04.525Z,102406.00
2019-03-24T07:08:24.292Z,102404.58
2019-03-24T07:10:44.127Z,102405.25
2019-03-24T07:13:03.962Z,102409.45
2019-03-24T07:15:23.874Z,102400.97
2019-03-24T07:17:43.747Z,102402.02
2019-03-24T07:20:04.878Z,102395.03
2019-03-24T07:22:25.104Z,102396.64
2019-03-24T07:24:45.018Z,102396.86
2019-03-24T07:27:05.198Z,102398.54
2019-03-24T07:29:25.046Z,102394.67
2019-03-24T07:31:44.837Z,102392.53
2019-03-24T07:34:04.600Z,102394.06
2019-03-24T07:36:24.291Z,102397.52
2019-03-24T07:38:44.208Z,102390.12
2019-03-24T07:41:03.955Z,102391.52
2019-03-24T07:43:23.670Z,102390.30
2019-03-24T07:45:43.502Z,102388.14
2019-03-24T07:48:03.274Z,102378.72
2019-03-24T07:50:22.983Z,102375.37
2019-03-24T07:52:42.753Z,102372.22
2019-03-24T07:55:05.437Z,102370.73
2019-03-24T07:57:25.566Z,102374.23
2019-03-24T07:59:45.339Z,102369.12
2019-03-24T08:02:05.186Z,102360.44
2019-03-24T08:04:24.905Z,102353.78
2019-03-24T08:06:44.670Z,102352.91
2019-03-24T08:09:05.522Z,102351.58
2019-03-24T08:11:25.285Z,102347.88
2019-03-24T08:13:53.682Z,102339.61
2019-03-24T08:16:06.882Z,102340.05
2019-03-24T08:18:30.067Z,102339.55
2019-03-24T08:20:48.392Z,102338.39
2019-03-24T08:23:08.202Z,102341.27
2019-03-24T08:25:27.838Z,102338.61
2019-03-24T08:27:47.868Z,102329.51
2019-03-24T08:30:09.211Z,102326.88
2019-03-24T08:32:29.501Z,102318.67
2019-03-24T08:34:49.504Z,102314.50
2019-03-24T08:37:09.366Z,102306.39
2019-03-24T08:39:29.207Z,102305.58
2019-03-24T08:41:49.286Z,102310.64
2019-03-24T08:44:09.353Z,102300.25
2019-03-24T08:46:29.423Z,102299.33
2019-03-24T08:48:49.728Z,102291.23
2019-03-24T08:51:09.615Z,102295.69
2019-03-24T08:53:29.376Z,102291.48
2019-03-24T08:55:49.050Z,102290.73
2019-03-24T08:58:08.783Z,102296.97
2019-03-24T09:00:30.852Z,102296.62
2019-03-24T09:02:50.277Z,102288.11
2019-03-24T09:05:10.266Z,102278.34
2019-03-24T09:07:32.272Z,102276.39
2019-03-24T09:09:52.314Z,102273.63
2019-03-24T09:12:12.317Z,102264.36
2019-03-24T09:14:32.048Z,102264.63
2019-03-24T09:16:51.736Z,102264.98
2019-03-24T09:19:11.620Z,102255.07
2019-03-24T09:21:31.360Z,102252.34
2019-03-24T09:23:51.182Z,102248.53
2019-03-24T09:26:10.961Z,102249.17
2019-03-24T09:28:30.818Z,102241.39
2019-03-24T09:30:50.602Z,102241.67
2019-03-24T09:33:10.278Z,102242.09
2019-03-24T09:35:30.164Z,102235.88
2019-03-24T09:37:50.111Z,102229.29
2019-03-24T09:40:15.702Z,102227.63
2019-03-24T09:42:35.572Z,102215.44
2019-03-24T09:44:55.358Z,102216.00
2019-03-24T09:47:15.066Z,102213.47
2019-03-24T09:49:34.827Z,102207.20
2019-03-24T09:51:54.658Z,102201.67
2019-03-24T09:54:14.500Z,102199.08
2019-03-24T09:56:34.483Z,102195.52
2019-03-24T09:58:54.289Z,102194.54
2019-03-24T10:01:15.218Z,102193.81
2019-03-24T10:03:35.233Z,102192.03
2019-03-24T10:05:55.192Z,102187.66
2019-03-24T10:08:15.210Z,102182.66
2019-03-24T10:10:34.997Z,102184.91
2019-03-24T10:12:54.819Z,102177.73
2019-03-24T10:15:14.582Z,102174.80
2019-03-24T10:17:34.391Z,102174.44
2019-03-24T10:19:54.158Z,102177.16
2019-03-24T10:22:13.918Z,102173.33
2019-03-24T10:24:33.695Z,102174.03
2019-03-24T10:26:53.453Z,102178.08
2019-03-24T10:29:13.289Z,102171.92
2019-03-24T10:31:33.059Z,102169.52
2019-03-24T10:33:52.839Z,102167.12
2019-03-24T10:36:12.604Z,102170.80
2019-03-24T10:38:32.361Z,102163.05
2019-03-24T10:40:52.267Z,102156.95
2019-03-24T10:43:12.148Z,102145.61
2019-03-24T10:45:32.083Z,102145.34
2019-03-24T10:47:52.068Z,102146.31
2019-03-24T10:50:14.302Z,102144.91
2019-03-24T10:52:34.309Z,102138.55
2019-03-24T10:54:54.239Z,102138.46
2019-03-24T10:57:14.120Z,102134.98
2019-03-24T10:59:34.040Z,102131.59
2019-03-24T11:01:53.954Z,102122.06
2019-03-24T11:04:15.893Z,102119.18
2019-03-24T11:06:35.780Z,102119.96
2019-03-24T11:08:55.683Z,102116.89
2019-03-24T11:11:15.546Z,102105.94
2019-03-24T11:13:35.297Z,102116.42
2019-03-24T11:15:55.134Z,102108.22
2019-03-24T11:18:14.963Z,102107.44
2019-03-24T11:20:34.635Z,102104.91
2019-03-24T11:22:54.491Z,102097.97
2019-03-24T11:25:14.111Z,102093.39
2019-03-24T11:27:33.994Z,102083.34
2019-03-24T11:29:53.679Z,102076.09
2019-03-24T11:32:13.405Z,102074.97
2019-03-24T11:34:33.350Z,102075.83
2019-03-24T11:36:53.532Z,102070.34
2019-03-24T11:39:13.380Z,102058.15
2019-03-24T11:41:33.154Z,102062.46
2019-03-24T11:43:53.215Z,102055.72
2019-03-24T11:46:13.276Z,102047.37
2019-03-24T11:48:33.119Z,102047.84
2019-03-24T11:50:53.052Z,102039.23
2019-03-24T11:53:13.010Z,102027.41
2019-03-24T11:55:32.962Z,102029.77
2019-03-24T11:57:52.952Z,102022.64
2019-03-24T12:00:15.946Z,102010.66
2019-03-24T12:02:36.160Z,102009.80
2019-03-24T12:04:56.151Z,102016.35
2019-03-24T12:07:16.007Z,102009.43
2019-03-24T12:09:36.110Z,102011.45
2019-03-24T12:11:55.962Z,102010.78
2019-03-24T12:14:15.878Z,102008.28
2019-03-24T12:16:35.981Z,102009.36
2019-03-24T12:18:55.686Z,101997.25
2019-03-24T12:21:15.357Z,101986.25
2019-03-24T12:23:35.096Z,101990.22
2019-03-24T12:25:54.749Z,101982.75
2019-03-24T12:28:14.471Z,101976.70
2019-03-24T12:30:34.253Z,101974.11
2019-03-24T12:32:54.099Z,101965.80
2019-03-24T12:35:13.854Z,101952.45
2019-03-24T12:37:33.616Z,101948.48
2019-03-24T12:39:53.540Z,101959.60
2019-03-24T12:42:13.357Z,101949.17
2019-03-24T12:44:33.306Z,101943.48
2019-03-24T12:46:53.511Z,101929.94
2019-03-24T12:49:13.813Z,101923.47
2019-03-24T12:51:33.709Z,101908.31
2019-03-24T12:53:53.682Z,101912.73
2019-03-24T12:56:13.789Z,101909.73
2019-03-24T12:58:34.287Z,101905.15
2019-03-24T13:00:54.079Z,101903.33
2019-03-24T13:03:13.927Z,101895.23
2019-03-24T13:05:33.748Z,101889.10
2019-03-24T13:07:59.499Z,101883.80
2019-03-24T13:10:19.372Z,101882.73
2019-03-24T13:12:39.366Z,101881.45
2019-03-24T13:14:59.414Z,101870.93
2019-03-24T13:17:19.851Z,101875.59
2019-03-24T13:19:40.390Z,101876.72
2019-03-24T13:22:00.360Z,101865.08
2019-03-24T13:24:20.290Z,101877.29
2019-03-24T13:26:40.280Z,101864.16
2019-03-24T13:28:59.970Z,101866.20
2019-03-24T13:31:19.782Z,101863.55
2019-03-24T13:33:39.538Z,101853.00
2019-03-24T13:36:06.830Z,101854.63
2019-03-24T13:38:26.872Z,101851.12
2019-03-24T13:40:46.762Z,101850.70
2019-03-24T13:43:06.744Z,101854.08
2019-03-24T13:45:26.686Z,101846.77
2019-03-24T13:47:46.674Z,101850.19
2019-03-24T13:50:07.105Z,101825.20
2019-03-24T13:52:27.105Z,101833.75
2019-03-24T13:54:47.103Z,101835.96
2019-03-24T13:57:06.849Z,101834.94
2019-03-24T13:59:26.664Z,101827.78
2019-03-24T14:01:46.406Z,101831.99
2019-03-24T14:04:06.351Z,101832.42
2019-03-24T14:06:26.062Z,101828.77
2019-03-24T14:08:45.727Z,101825.82
2019-03-24T14:11:05.533Z,101819.08
2019-03-24T14:13:25.259Z,101820.70
2019-03-24T14:15:45.129Z,101821.64
2019-03-24T14:18:04.925Z,101827.69
2019-03-24T14:20:24.675Z,101821.09
2019-03-24T14:22:44.454Z,101824.88
2019-03-24T14:25:05.799Z,101817.84
2019-03-24T14:27:25.581Z,101810.17
2019-03-24T14:29:45.492Z,101810.57
2019-03-24T14:32:05.429Z,101809.47
2019-03-24T14:34:25.451Z,101809.28
2019-03-24T14:36:45.369Z,101810.23
2019-03-24T14:39:05.698Z,101806.30
2019-03-24T14:41:25.778Z,101800.70
2019-03-24T14:43:45.757Z,101793.77
2019-03-24T14:46:05.610Z,101801.34
2019-03-24T14:48:25.429Z,101793.82
2019-03-24T14:50:53.885Z,101800.75
2019-03-24T14:53:07.088Z,101803.22
2019-03-24T14:55:26.865Z,101801.38
2019-03-24T14:57:46.676Z,101802.99
2019-03-24T15:00:08.029Z,101793.06
2019-03-24T15:02:28.088Z,101791.82
2019-03-24T15:04:47.908Z,101795.16
2019-03-24T15:07:07.688Z,101796.97
2019-03-24T15:09:27.502Z,101795.93
2019-03-24T15:11:47.263Z,101800.94
2019-03-24T15:14:06.989Z,101794.75
2019-03-24T15:16:26.694Z,101798.58
2019-03-24T15:18:46.572Z,101794.00
2019-03-24T15:21:06.437Z,101798.50
2019-03-24T15:23:26.244Z,101793.31
2019-03-24T15:25:46.012Z,101794.67
2019-03-24T15:28:05.870Z,101791.24
2019-03-24T15:30:25.678Z,101792.45
2019-03-24T15:32:45.631Z,101789.98
2019-03-24T15:35:06.409Z,101785.34
2019-03-24T15:37:26.424Z,101787.95
2019-03-24T15:39:46.588Z,101783.38
2019-03-24T15:42:06.629Z,101782.63
2019-03-24T15:44:27.071Z,101784.38
2019-03-24T15:46:46.963Z,101792.25
2019-03-24T15:49:06.896Z,101791.91
2019-03-24T15:51:26.692Z,101785.91
2019-03-24T15:53:46.354Z,101789.72
2019-03-24T15:56:06.118Z,101792.02
2019-03-24T15:58:25.793Z,101785.81
2019-03-24T16:00:46.370Z,101785.31
2019-03-24T16:03:06.338Z,101782.41
2019-03-24T16:05:26.024Z,101781.47
2019-03-24T16:07:45.750Z,101781.38
2019-03-24T16:10:05.899Z,101770.32
2019-03-24T16:12:25.661Z,101764.75
2019-03-24T16:14:45.496Z,101756.73
2019-03-24T16:17:05.167Z,101757.23
2019-03-24T16:19:24.879Z,101762.95
2019-03-24T16:21:44.643Z,101760.23
2019-03-24T16:24:04.354Z,101757.53
2019-03-24T16:26:24.234Z,101759.39
2019-03-24T16:28:44.158Z,101761.34
2019-03-24T16:31:04.094Z,101760.39
2019-03-24T16:33:23.981Z,101766.38
2019-03-24T16:35:44.000Z,101764.64
2019-03-24T16:38:03.956Z,101759.28
2019-03-24T16:40:23.854Z,101759.46
2019-03-24T16:42:43.843Z,101752.20
2019-03-24T16:45:04.894Z,101751.19
2019-03-24T16:47:24.882Z,101751.03
2019-03-24T16:49:44.637Z,101746.09
2019-03-24T16:52:04.440Z,101742.64
2019-03-24T16:54:24.095Z,101731.94
2019-03-24T16:56:43.995Z,101725.13
2019-03-24T16:59:03.719Z,101726.45
2019-03-24T17:01:23.632Z,101731.80
2019-03-24T17:03:43.339Z,101731.80
2019-03-24T17:06:03.416Z,101730.30
2019-03-24T17:08:23.504Z,101726.34
2019-03-24T17:10:43.250Z,101736.23
2019-03-24T17:13:02.964Z,101731.36
2019-03-24T17:15:22.727Z,101730.50
2019-03-24T17:17:42.622Z,101731.95
2019-03-24T17:20:07.849Z,101732.71
2019-03-24T17:22:30.093Z,101732.61
2019-03-24T17:24:49.395Z,101731.86
2019-03-24T17:27:09.111Z,101726.66
2019-03-24T17:29:28.854Z,101726.95
2019-03-24T17:31:48.714Z,101732.42
2019-03-24T17:34:08.820Z,101725.48
2019-03-24T17:36:28.655Z,101728.27
2019-03-24T17:38:48.496Z,101721.70
2019-03-24T17:41:08.317Z,101723.71
2019-03-24T17:43:28.333Z,101727.05
2019-03-24T17:45:48.340Z,101728.59
2019-03-24T17:48:08.246Z,101724.26
2019-03-24T17:50:28.152Z,101726.84
2019-03-24T17:52:48.096Z,101723.36
2019-03-24T17:55:09.059Z,101727.08
2019-03-24T17:57:29.197Z,101723.00
2019-03-24T17:59:48.989Z,101719.77
2019-03-24T18:02:14.308Z,101719.20
2019-03-24T18:04:30.407Z,101720.41
2019-03-24T18:06:50.106Z,101723.55
2019-03-24T18:09:09.874Z,101722.88
2019-03-24T18:11:29.516Z,101719.02
2019-03-24T18:13:49.330Z,101719.91
2019-03-24T18:16:09.127Z,101720.59
2019-03-24T18:18:28.827Z,101718.79
2019-03-24T18:20:48.658Z,101717.36
2019-03-24T18:23:08.587Z,101731.55
2019-03-24T18:25:28.451Z,101728.35
2019-03-24T18:27:48.198Z,101729.47
2019-03-24T18:30:10.349Z,101724.76
2019-03-24T18:32:30.012Z,101717.31
2019-03-24T18:34:49.834Z,101716.23
2019-03-24T18:37:09.836Z,101715.94
2019-03-24T18:39:29.625Z,101716.96
2019-03-24T18:41:49.452Z,101714.94
2019-03-24T18:44:09.285Z,101717.16
2019-03-24T18:46:29.320Z,101721.14
2019-03-24T18:48:49.410Z,101723.24
2019-03-24T18:51:09.233Z,101720.27
2019-03-24T18:53:29.086Z,101716.45
2019-03-24T18:55:48.906Z,101712.81
2019-03-24T18:58:08.618Z,101717.63
2019-03-24T19:00:28.317Z,101706.77
2019-03-24T19:02:47.976Z,101707.97
2019-03-24T19:05:08.529Z,101707.02
2019-03-24T19:07:28.487Z,101708.36
2019-03-24T19:09:48.272Z,101698.94
2019-03-24T19:12:08.242Z,101701.65
2019-03-24T19:14:28.020Z,101701.28
2019-03-24T19:16:47.771Z,101697.42
2019-03-24T19:19:07.545Z,101693.02
2019-03-24T19:21:27.441Z,101690.76
2019-03-24T19:23:47.320Z,101691.83
2019-03-24T19:26:07.058Z,101692.13
2019-03-24T19:28:26.919Z,101692.17
2019-03-24T19:30:46.909Z,101697.53
2019-03-24T19:33:07.123Z,101690.77
2019-03-24T19:35:27.368Z,101690.21
2019-03-24T19:37:48.336Z,101699.28
2019-03-24T19:40:30.072Z,101691.33
2019-03-24T19:42:50.285Z,101689.20
2019-03-24T19:45:10.415Z,101687.78
2019-03-24T19:47:30.871Z,101683.89
2019-03-24T19:49:50.696Z,101682.42
2019-03-24T19:52:10.489Z,101682.14
2019-03-24T19:54:30.269Z,101672.42
2019-03-24T19:56:50.071Z,101671.97
2019-03-24T19:59:09.897Z,101674.70
2019-03-24T20:01:29.937Z,101671.87
2019-03-24T20:03:49.906Z,101667.02
2019-03-24T20:06:09.914Z,101658.73
2019-03-24T20:08:29.805Z,101657.89
2019-03-24T20:10:49.662Z,101656.38
2019-03-24T20:13:09.507Z,101655.67
2019-03-24T20:15:29.363Z,101656.30
2019-03-24T20:17:49.569Z,101653.44
2019-03-24T20:20:09.883Z,101642.93
2019-03-24T20:22:29.953Z,101637.78
2019-03-24T20:24:49.677Z,101643.45
2019-03-24T20:27:09.429Z,101642.80
2019-03-24T20:29:29.308Z,101638.98
2019-03-24T20:31:48.988Z,101637.55
2019-03-24T20:34:08.866Z,101635.69
2019-03-24T20:36:28.541Z,101637.03
2019-03-24T20:38:48.409Z,101634.38
2019-03-24T20:41:08.150Z,101633.73
2019-03-24T20:43:27.974Z,101631.52
2019-03-24T20:45:47.676Z,101631.15
2019-03-24T20:48:07.546Z,101634.54
2019-03-24T20:50:27.503Z,101630.80
2019-03-24T20:52:47.353Z,101627.38
2019-03-24T20:55:07.573Z,101622.31
2019-03-24T20:57:27.622Z,101619.53
2019-03-24T20:59:47.620Z,101616.81
2019-03-24T21:02:07.786Z,101616.13
2019-03-24T21:04:27.702Z,101617.39
2019-03-24T21:06:47.540Z,101617.95
2019-03-24T21:09:08.005Z,101612.09
2019-03-24T21:11:27.998Z,101612.34
2019-03-24T21:13:47.645Z,101607.36
2019-03-24T21:16:07.366Z,101606.15
2019-03-24T21:18:27.050Z,101605.77
2019-03-24T21:20:46.980Z,101605.82
2019-03-24T21:23:07.389Z,101607.13
2019-03-24T21:25:27.073Z,101600.02
2019-03-24T21:27:46.862Z,101597.34
2019-03-24T21:30:08.109Z,101595.59
2019-03-24T21:32:27.884Z,101591.33
2019-03-24T21:34:47.678Z,101594.25
2019-03-24T21:37:07.402Z,101588.77
2019-03-24T21:39:27.305Z,101584.69
2019-03-24T21:41:47.093Z,101583.36
2019-03-24T21:44:06.969Z,101586.78
2019-03-24T21:46:26.849Z,101578.66
2019-03-24T21:48:46.677Z,101580.51
2019-03-24T21:51:06.669Z,101574.08
2019-03-24T21:53:26.648Z,101575.25
2019-03-24T21:55:46.789Z,101570.24
2019-03-24T21:58:06.631Z,101568.83
2019-03-24T22:00:33.192Z,101570.53
2019-03-24T22:02:52.899Z,101571.86
2019-03-24T22:05:12.707Z,101574.19
2019-03-24T22:07:32.576Z,101564.05
2019-03-24T22:09:52.528Z,101568.65
2019-03-24T22:12:12.479Z,101564.38
2019-03-24T22:14:32.455Z,101558.58
2019-03-24T22:16:52.436Z,101555.80
2019-03-24T22:19:12.501Z,101552.42
2019-03-24T22:21:32.306Z,101545.55
2019-03-24T22:23:52.762Z,101549.75
2019-03-24T22:26:12.770Z,101545.72
2019-03-24T22:28:32.558Z,101542.80
2019-03-24T22:30:52.296Z,101543.09
2019-03-24T22:33:12.033Z,101533.87
2019-03-24T22:35:31.817Z,101535.14
2019-03-24T22:37:51.483Z,101528.37
2019-03-24T22:40:11.672Z,101525.52
2019-03-24T22:42:31.798Z,101522.72
2019-03-24T22:44:51.519Z,101518.81
2019-03-24T22:47:11.367Z,101512.02
2019-03-24T22:49:31.135Z,101518.08
2019-03-24T22:51:50.931Z,101514.22
2019-03-24T22:54:10.722Z,101503.84
2019-03-24T22:56:30.544Z,101507.96
2019-03-24T22:58:50.416Z,101510.20
2019-03-24T23:01:11.045Z,101499.67
2019-03-24T23:03:31.387Z,101504.58
2019-03-24T23:05:51.267Z,101498.47
2019-03-24T23:08:11.171Z,101495.55
2019-03-24T23:10:31.230Z,101493.43
2019-03-24T23:12:51.200Z,101485.64
2019-03-24T23:15:11.036Z,101486.77
2019-03-24T23:17:30.835Z,101484.68
2019-03-24T23:19:50.576Z,101486.32
2019-03-24T23:22:10.423Z,101484.39
2019-03-24T23:24:30.201Z,101486.82
2019-03-24T23:26:49.933Z,101476.28
2019-03-24T23:29:09.653Z,101476.91
2019-03-24T23:31:29.477Z,101472.85
2019-03-24T23:33:49.712Z,101476.73
2019-03-24T23:36:09.729Z,101469.61
2019-03-24T23:38:29.773Z,101467.98
2019-03-24T23:40:50.078Z,101462.62
2019-03-24T23:43:09.864Z,101461.81
2019-03-24T23:45:29.715Z,101455.95
2019-03-24T23:47:49.508Z,101451.62
2019-03-24T23:50:09.231Z,101447.05
2019-03-24T23:52:29.052Z,101441.70
2019-03-24T23:54:48.955Z,101437.63
2019-03-24T23:57:08.992Z,101425.63
2019-03-24T23:59:28.895Z,101433.25
